KMTW/MTW METAR and TAF weather

Enter ICAO airport designator
Station Type Date Time Source
KMTW METAR 2020/06/03 14:56 UTC NOAA

KMTW 031456Z AUTO 29010KT 10SM CLR 24/15 A2982 RMK AO2 SLP092 T02440150 51007


Station Type Date Time Source
KMTW Decoded METAR 2020/06/03 14:56 UTC NOAA

Manitowoc, Manitowoc County Airport, WI, United States (KMTW) 44-08N 087-41W
Jun 03, 2020 - 10:56 AM EDT / 2020.06.03 1456 UTC
Wind: from the WNW (290 degrees) at 12 MPH (10 KT):0
Visibility: 10 mile(s):0
Sky conditions: clear
Temperature: 75.9 F (24.4 C)
Dew Point: 59.0 F (15.0 C)
Relative Humidity: 55%
Pressure (altimeter): 29.82 in. Hg (1009 hPa)
Pressure tendency: 0.02 inches (0.7 hPa) higher than three hours ago
ob: KMTW 031456Z AUTO 29010KT 10SM CLR 24/15 A2982 RMK AO2 SLP092 T02440150 51007
cycle: 15

Station Type Date Time Source
KMTW TAF 2020/06/03 12:22 UTC NOAA

TAF KMTW 031120Z 0312/0412 29009KT P6SM BKN250
FM032000 19009KT P6SM FEW050
FM040100 28006KT P6SM SKC
FM040500 36003KT P6SM SKC

Example: see airport list